Time,TemperatureF,DewpointF,PressureIn,WindDirection,WindDirectionDegrees,WindSpeedMPH,WindSpeedGustMPH,Humidity,HourlyPrecipIn,Conditions,Clouds,dailyrainin,SoftwareType,DateUTC
2015-04-01 00:03:00,34.7,20.6,29.66,NNE,15,6.0,8.0,56,0.00,,,0.00,Wunderground v.1.15,2015-04-01 04:03:00,
2015-04-01 00:09:00,35.1,20.5,29.66,NNE,17,5.0,8.0,55,0.00,,,0.00,Wunderground v.1.15,2015-04-01 04:09:00,
2015-04-01 00:15:00,35.2,19.8,29.66,NE,35,5.0,7.0,53,0.00,,,0.00,Wunderground v.1.15,2015-04-01 04:15:00,
2015-04-01 00:21:00,35.4,19.5,29.67,NE,38,6.0,6.0,52,0.00,,,0.00,Wunderground v.1.15,2015-04-01 04:21:00,
2015-04-01 00:26:00,35.2,19.3,29.67,NNE,13,6.0,7.0,52,0.00,,,0.00,Wunderground v.1.15,2015-04-01 04:26:00,
2015-04-01 00:32:00,34.9,18.1,29.67,NE,37,6.0,7.0,50,0.00,,,0.00,Wunderground v.1.15,2015-04-01 04:32:00,
2015-04-01 00:38:00,34.7,17.0,29.67,NNE,22,7.0,8.0,48,0.00,,,0.00,Wunderground v.1.15,2015-04-01 04:38:00,
2015-04-01 00:44:00,34.6,16.9,29.67,NNE,13,7.0,10.0,48,0.00,,,0.00,Wunderground v.1.15,2015-04-01 04:44:00,
2015-04-01 00:50:00,34.6,16.9,29.67,NNE,22,6.0,6.0,48,0.00,,,0.00,Wunderground v.1.15,2015-04-01 04:50:00,
2015-04-01 00:56:00,34.4,17.2,29.68,NNE,13,5.0,8.0,49,0.00,,,0.00,Wunderground v.1.15,2015-04-01 04:56:00,
2015-04-01 01:01:00,34.2,16.5,29.68,NNE,31,5.0,10.0,48,0.00,,,0.00,Wunderground v.1.15,2015-04-01 05:01:00,
2015-04-01 01:07:00,34.0,15.9,29.67,NNE,19,5.0,10.0,47,0.00,,,0.00,Wunderground v.1.15,2015-04-01 05:07:00,
2015-04-01 01:13:00,33.8,15.2,29.67,NE,37,5.0,7.0,46,0.00,,,0.00,Wunderground v.1.15,2015-04-01 05:13:00,
2015-04-01 01:19:00,33.6,14.5,29.68,NE,49,6.0,9.0,45,0.00,,,0.00,Wunderground v.1.15,2015-04-01 05:19:00,
2015-04-01 01:25:00,33.4,15.3,29.68,NE,44,6.0,8.0,47,0.00,,,0.00,Wunderground v.1.15,2015-04-01 05:25:00,
2015-04-01 01:31:00,33.2,15.6,29.68,NNE,32,5.0,5.0,48,0.00,,,0.00,Wunderground v.1.15,2015-04-01 05:31:00,
2015-04-01 01:37:00,32.8,16.2,29.68,NE,42,4.0,5.0,50,0.00,,,0.00,Wunderground v.1.15,2015-04-01 05:37:00,
2015-04-01 01:42:00,32.6,16.0,29.69,NNE,26,3.0,4.0,50,0.00,,,0.00,Wunderground v.1.15,2015-04-01 05:42:00,
2015-04-01 01:49:00,32.3,15.7,29.69,NNE,26,2.0,13.0,50,0.00,,,0.00,Wunderground v.1.15,2015-04-01 05:49:00,
2015-04-01 01:55:00,32.0,15.9,29.69,NNE,26,1.0,13.0,51,0.00,,,0.00,Wunderground v.1.15,2015-04-01 05:55:00,
2015-04-01 02:00:00,31.7,15.6,29.69,NNE,28,1.0,2.0,51,0.00,,,0.00,Wunderground v.1.15,2015-04-01 06:00:00,
2015-04-01 02:06:00,31.5,15.4,29.69,NNE,15,2.0,4.0,51,0.00,,,0.00,Wunderground v.1.15,2015-04-01 06:06:00,
2015-04-01 02:12:00,31.6,15.5,29.69,NE,37,4.0,9.0,51,0.00,,,0.00,Wunderground v.1.15,2015-04-01 06:12:00,
2015-04-01 02:18:00,31.5,15.4,29.69,NNE,30,5.0,9.0,51,0.00,,,0.00,Wunderground v.1.15,2015-04-01 06:18:00,
2015-04-01 02:24:00,31.5,15.0,29.69,NNE,18,5.0,6.0,50,0.00,,,0.00,Wunderground v.1.15,2015-04-01 06:24:00,
2015-04-01 02:29:00,31.5,15.0,29.70,NE,35,4.0,6.0,50,0.00,,,0.00,Wunderground v.1.15,2015-04-01 06:29:00,
2015-04-01 02:35:00,31.3,14.8,29.70,NE,35,3.0,4.0,50,0.00,,,0.00,Wunderground v.1.15,2015-04-01 06:35:00,
2015-04-01 02:41:00,31.1,14.6,29.70,NE,36,3.0,4.0,50,0.00,,,0.00,Wunderground v.1.15,2015-04-01 06:41:00,
2015-04-01 02:47:00,30.9,14.0,29.70,NE,34,2.0,8.0,49,0.00,,,0.00,Wunderground v.1.15,2015-04-01 06:47:00,
2015-04-01 02:53:00,30.7,13.8,29.70,NE,34,2.0,8.0,49,0.00,,,0.00,Wunderground v.1.15,2015-04-01 06:53:00,
2015-04-01 02:59:00,30.6,13.2,29.71,NE,34,2.0,8.0,48,0.00,,,0.00,Wunderground v.1.15,2015-04-01 06:59:00,
2015-04-01 03:04:00,30.5,13.1,29.71,NE,34,2.0,3.0,48,0.00,,,0.00,Wunderground v.1.15,2015-04-01 07:04:00,
2015-04-01 03:10:00,30.3,12.5,29.71,NE,34,2.0,2.0,47,0.00,,,0.00,Wunderground v.1.15,2015-04-01 07:10:00,
2015-04-01 03:16:00,30.1,10.8,29.72,NE,34,2.0,4.0,44,0.00,,,0.00,Wunderground v.1.15,2015-04-01 07:16:00,
2015-04-01 03:22:00,30.0,10.2,29.72,NE,34,3.0,5.0,43,0.00,,,0.00,Wunderground v.1.15,2015-04-01 07:22:00,
2015-04-01 03:28:00,29.9,9.6,29.72,NNE,13,3.0,5.0,42,0.00,,,0.00,Wunderground v.1.15,2015-04-01 07:28:00,
2015-04-01 03:33:00,29.8,8.9,29.72,North,5,3.0,6.0,41,0.00,,,0.00,Wunderground v.1.15,2015-04-01 07:33:00,
2015-04-01 03:39:00,29.6,8.7,29.73,North,355,4.0,6.0,41,0.00,,,0.00,Wunderground v.1.15,2015-04-01 07:39:00,
2015-04-01 03:45:00,29.5,8.7,29.73,North,355,4.0,6.0,41,0.00,,,0.00,Wunderground v.1.15,2015-04-01 07:45:00,
2015-04-01 03:51:00,29.5,7.5,29.73,North,351,4.0,6.0,39,0.00,,,0.00,Wunderground v.1.15,2015-04-01 07:51:00,
2015-04-01 03:57:00,29.5,7.5,29.73,North,360,3.0,6.0,39,0.00,,,0.00,Wunderground v.1.15,2015-04-01 07:57:00,
2015-04-01 04:02:00,29.4,7.5,29.73,North,360,2.0,4.0,39,0.00,,,0.00,Wunderground v.1.15,2015-04-01 08:02:00,
2015-04-01 04:08:00,29.2,7.8,29.73,North,360,2.0,4.0,40,0.00,,,0.00,Wunderground v.1.15,2015-04-01 08:08:00,
2015-04-01 04:14:00,28.9,8.1,29.73,North,360,1.0,2.0,41,0.00,,,0.00,Wunderground v.1.15,2015-04-01 08:14:00,
2015-04-01 04:19:00,28.6,8.9,29.74,North,360,0.0,2.0,43,0.00,,,0.00,Wunderground v.1.15,2015-04-01 08:19:00,
2015-04-01 04:25:00,28.4,8.7,29.74,North,360,1.0,2.0,43,0.00,,,0.00,Wunderground v.1.15,2015-04-01 08:25:00,
2015-04-01 04:31:00,28.3,8.1,29.74,North,360,1.0,2.0,42,0.00,,,0.00,Wunderground v.1.15,2015-04-01 08:31:00,
2015-04-01 04:37:00,28.2,8.5,29.74,North,360,1.0,2.0,43,0.00,,,0.00,Wunderground v.1.15,2015-04-01 08:37:00,
2015-04-01 04:43:00,28.1,7.9,29.75,North,360,1.0,1.0,42,0.00,,,0.00,Wunderground v.1.15,2015-04-01 08:43:00,
2015-04-01 04:49:00,28.1,8.4,29.75,North,360,1.0,8.0,43,0.00,,,0.00,Wunderground v.1.15,2015-04-01 08:49:00,
2015-04-01 04:55:00,28.0,7.8,29.75,North,360,0.0,8.0,42,0.00,,,0.00,Wunderground v.1.15,2015-04-01 08:55:00,
2015-04-01 05:00:00,27.9,8.3,29.75,North,360,0.0,0.0,43,0.00,,,0.00,Wunderground v.1.15,2015-04-01 09:00:00,
2015-04-01 05:06:00,27.6,9.0,29.75,North,360,0.0,0.0,45,0.00,,,0.00,Wunderground v.1.15,2015-04-01 09:06:00,
2015-04-01 05:11:00,27.4,8.8,29.75,North,360,0.0,0.0,45,0.00,,,0.00,Wunderground v.1.15,2015-04-01 09:11:00,
2015-04-01 05:16:00,27.2,9.1,29.75,North,360,0.0,0.0,46,0.00,,,0.00,Wunderground v.1.15,2015-04-01 09:16:00,
2015-04-01 05:22:00,27.0,9.4,29.76,North,360,0.0,0.0,47,0.00,,,0.00,Wunderground v.1.15,2015-04-01 09:22:00,
2015-04-01 05:28:00,26.9,8.8,29.76,North,360,0.0,0.0,46,0.00,,,0.00,Wunderground v.1.15,2015-04-01 09:28:00,
2015-04-01 05:33:00,26.8,8.8,29.76,North,360,0.0,0.0,46,0.00,,,0.00,Wunderground v.1.15,2015-04-01 09:33:00,
2015-04-01 05:39:00,26.7,8.7,29.76,North,360,0.0,0.0,46,0.00,,,0.00,Wunderground v.1.15,2015-04-01 09:39:00,
2015-04-01 05:45:00,26.6,9.1,29.76,North,360,0.0,2.0,47,0.00,,,0.00,Wunderground v.1.15,2015-04-01 09:45:00,
2015-04-01 05:51:00,26.5,9.4,29.77,North,360,0.0,3.0,48,0.00,,,0.00,Wunderground v.1.15,2015-04-01 09:51:00,
2015-04-01 05:57:00,26.4,11.1,29.77,North,360,0.0,3.0,52,0.00,,,0.00,Wunderground v.1.15,2015-04-01 09:57:00,
2015-04-01 06:03:00,26.2,11.8,29.78,North,360,0.0,0.0,54,0.00,,,0.00,Wunderground v.1.15,2015-04-01 10:03:00,
2015-04-01 06:09:00,26.0,12.0,29.78,North,360,0.0,0.0,55,0.00,,,0.00,Wunderground v.1.15,2015-04-01 10:09:00,
2015-04-01 06:14:00,26.0,11.2,29.79,North,360,0.0,0.0,53,0.00,,,0.00,Wunderground v.1.15,2015-04-01 10:14:00,
2015-04-01 06:20:00,25.8,11.4,29.79,North,360,0.0,0.0,54,0.00,,,0.00,Wunderground v.1.15,2015-04-01 10:20:00,
2015-04-01 06:25:00,25.7,11.3,29.79,North,360,0.0,0.0,54,0.00,,,0.00,Wunderground v.1.15,2015-04-01 10:25:00,
2015-04-01 06:30:00,25.6,11.2,29.80,North,360,0.0,0.0,54,0.00,,,0.00,Wunderground v.1.15,2015-04-01 10:30:00,
2015-04-01 06:36:00,25.4,11.5,29.80,North,360,0.0,1.0,55,0.00,,,0.00,Wunderground v.1.15,2015-04-01 10:36:00,
2015-04-01 06:43:00,25.3,11.4,29.80,North,360,0.0,0.0,55,0.00,,,0.00,Wunderground v.1.15,2015-04-01 10:43:00,
2015-04-01 06:49:00,25.3,11.0,29.81,North,360,0.0,3.0,54,0.00,,,0.00,Wunderground v.1.15,2015-04-01 10:49:00,
2015-04-01 06:54:00,25.4,11.0,29.81,North,360,0.0,3.0,54,0.00,,,0.00,Wunderground v.1.15,2015-04-01 10:54:00,
2015-04-01 07:00:00,25.4,11.0,29.81,North,360,0.0,0.0,54,0.00,,,0.00,Wunderground v.1.15,2015-04-01 11:00:00,
2015-04-01 07:06:00,25.6,11.2,29.82,North,360,0.0,0.0,54,0.00,,,0.00,Wunderground v.1.15,2015-04-01 11:06:00,
2015-04-01 07:12:00,25.8,11.4,29.82,North,360,0.0,0.0,54,0.00,,,0.00,Wunderground v.1.15,2015-04-01 11:12:00,
2015-04-01 07:18:00,26.3,11.5,29.82,North,360,0.0,0.0,53,0.00,,,0.00,Wunderground v.1.15,2015-04-01 11:18:00,
2015-04-01 07:23:00,26.7,11.8,29.82,North,360,0.0,0.0,53,0.00,,,0.00,Wunderground v.1.15,2015-04-01 11:23:00,
2015-04-01 07:29:00,27.3,13.7,29.83,North,360,0.0,0.0,56,0.00,,,0.00,Wunderground v.1.15,2015-04-01 11:29:00,
2015-04-01 07:35:00,27.6,14.3,29.83,North,360,0.0,0.0,57,0.00,,,0.00,Wunderground v.1.15,2015-04-01 11:35:00,
2015-04-01 07:40:00,27.8,14.5,29.83,North,360,0.0,0.0,57,0.00,,,0.00,Wunderground v.1.15,2015-04-01 11:40:00,
2015-04-01 07:46:00,28.0,15.1,29.83,North,360,0.0,2.0,58,0.00,,,0.00,Wunderground v.1.15,2015-04-01 11:46:00,
2015-04-01 07:52:00,28.2,15.3,29.84,North,360,0.0,2.0,58,0.00,,,0.00,Wunderground v.1.15,2015-04-01 11:52:00,
2015-04-01 07:58:00,28.5,15.6,29.84,North,360,0.0,2.0,58,0.00,,,0.00,Wunderground v.1.15,2015-04-01 11:58:00,
2015-04-01 08:04:00,28.7,15.0,29.84,North,360,0.0,0.0,56,0.00,,,0.00,Wunderground v.1.15,2015-04-01 12:04:00,
2015-04-01 08:10:00,29.1,14.5,29.84,NNE,33,0.0,2.0,54,0.00,,,0.00,Wunderground v.1.15,2015-04-01 12:10:00,
2015-04-01 08:15:00,29.6,14.5,29.84,NNE,31,1.0,3.0,53,0.00,,,0.00,Wunderground v.1.15,2015-04-01 12:15:00,
2015-04-01 08:21:00,30.2,15.1,29.84,NNE,31,1.0,1.0,53,0.00,,,0.00,Wunderground v.1.15,2015-04-01 12:21:00,
2015-04-01 08:27:00,30.8,14.8,29.84,NNE,30,0.0,3.0,51,0.00,,,0.00,Wunderground v.1.15,2015-04-01 12:27:00,
2015-04-01 08:33:00,31.5,14.0,29.85,NE,40,1.0,3.0,48,0.00,,,0.00,Wunderground v.1.15,2015-04-01 12:33:00,
2015-04-01 08:39:00,31.9,12.9,29.85,NE,34,1.0,3.0,45,0.00,,,0.00,Wunderground v.1.15,2015-04-01 12:39:00,
2015-04-01 08:45:00,32.3,12.3,29.84,SSE,153,2.0,3.0,43,0.00,,,0.00,Wunderground v.1.15,2015-04-01 12:45:00,
2015-04-01 08:51:00,32.7,13.2,29.85,North,360,1.0,3.0,44,0.00,,,0.00,Wunderground v.1.15,2015-04-01 12:51:00,
2015-04-01 08:57:00,33.2,10.3,29.85,NNW,336,3.0,8.0,38,0.00,,,0.00,Wunderground v.1.15,2015-04-01 12:57:00,
2015-04-01 09:02:00,33.4,10.5,29.85,North,349,5.0,6.0,38,0.00,,,0.00,Wunderground v.1.15,2015-04-01 13:02:00,
2015-04-01 09:08:00,33.5,8.7,29.85,NNW,336,6.0,11.0,35,0.00,,,0.00,Wunderground v.1.15,2015-04-01 13:08:00,
2015-04-01 09:14:00,33.8,8.4,29.85,NW,324,6.0,13.0,34,0.00,,,0.00,Wunderground v.1.15,2015-04-01 13:14:00,
2015-04-01 09:20:00,34.4,8.2,29.86,NNE,27,6.0,6.0,33,0.00,,,0.00,Wunderground v.1.15,2015-04-01 13:20:00,
2015-04-01 09:26:00,34.2,6.7,29.86,North,349,8.0,14.0,31,0.00,,,0.00,Wunderground v.1.15,2015-04-01 13:26:00,
2015-04-01 09:32:00,34.2,6.7,29.86,NNW,344,9.0,9.0,31,0.00,,,0.00,Wunderground v.1.15,2015-04-01 13:32:00,
2015-04-01 09:37:00,34.9,6.6,29.86,North,350,8.0,10.0,30,0.00,,,0.00,Wunderground v.1.15,2015-04-01 13:37:00,
2015-04-01 09:43:00,35.4,7.0,29.86,NNW,344,7.0,11.0,30,0.00,,,0.00,Wunderground v.1.15,2015-04-01 13:43:00,
2015-04-01 09:49:00,35.6,7.2,29.86,NE,40,8.0,14.0,30,0.00,,,0.00,Wunderground v.1.15,2015-04-01 13:49:00,
2015-04-01 09:55:00,35.4,6.2,29.86,NNW,342,9.0,11.0,29,0.00,,,0.00,Wunderground v.1.15,2015-04-01 13:55:00,
2015-04-01 10:00:00,35.3,6.2,29.86,North,11,8.0,8.0,29,0.00,,,0.00,Wunderground v.1.15,2015-04-01 14:00:00,
2015-04-01 10:06:00,35.4,6.2,29.87,NNE,15,9.0,10.0,29,0.00,,,0.00,Wunderground v.1.15,2015-04-01 14:06:00,
2015-04-01 10:13:00,35.8,7.3,29.86,NE,40,8.0,9.0,30,0.00,,,0.00,Wunderground v.1.15,2015-04-01 14:13:00,
2015-04-01 10:19:00,36.2,6.9,29.86,NNE,24,7.0,9.0,29,0.00,,,0.00,Wunderground v.1.15,2015-04-01 14:19:00,
2015-04-01 10:25:00,37.0,6.9,29.86,North,5,7.0,12.0,28,0.00,,,0.00,Wunderground v.1.15,2015-04-01 14:25:00,
2015-04-01 10:31:00,37.0,6.1,29.86,NNE,12,9.0,9.0,27,0.00,,,0.00,Wunderground v.1.15,2015-04-01 14:31:00,
2015-04-01 10:37:00,36.8,5.1,29.86,NNW,342,9.0,19.0,26,0.00,,,0.00,Wunderground v.1.15,2015-04-01 14:37:00,
2015-04-01 10:43:00,37.3,7.1,29.86,NNW,344,9.0,12.0,28,0.00,,,0.00,Wunderground v.1.15,2015-04-01 14:43:00,
2015-04-01 10:49:00,37.8,5.9,29.87,NNW,343,9.0,21.0,26,0.00,,,0.00,Wunderground v.1.15,2015-04-01 14:49:00,
2015-04-01 10:54:00,37.7,5.0,29.87,NNE,25,10.0,21.0,25,0.00,,,0.00,Wunderground v.1.15,2015-04-01 14:54:00,
2015-04-01 11:00:00,37.7,5.0,29.87,North,360,10.0,10.0,25,0.00,,,0.00,Wunderground v.1.15,2015-04-01 15:00:00,
2015-04-01 11:06:00,37.9,6.0,29.86,NNE,26,9.0,21.0,26,0.00,,,0.00,Wunderground v.1.15,2015-04-01 15:06:00,
2015-04-01 11:12:00,38.5,7.4,29.87,NNW,346,8.0,21.0,27,0.00,,,0.00,Wunderground v.1.15,2015-04-01 15:12:00,
2015-04-01 11:17:00,38.9,7.7,29.86,NNE,14,7.0,21.0,27,0.00,,,0.00,Wunderground v.1.15,2015-04-01 15:17:00,
2015-04-01 11:23:00,39.4,8.1,29.86,NNW,329,6.0,21.0,27,0.00,,,0.00,Wunderground v.1.15,2015-04-01 15:23:00,
2015-04-01 11:29:00,39.6,6.6,29.86,North,355,8.0,21.0,25,0.00,,,0.00,Wunderground v.1.15,2015-04-01 15:29:00,
2015-04-01 11:35:00,39.5,6.5,29.86,North,360,8.0,21.0,25,0.00,,,0.00,Wunderground v.1.15,2015-04-01 15:35:00,
2015-04-01 11:40:00,39.9,8.6,29.86,NE,40,6.0,6.0,27,0.00,,,0.00,Wunderground v.1.15,2015-04-01 15:40:00,
2015-04-01 11:45:00,40.1,7.9,29.86,NE,36,7.0,21.0,26,0.00,,,0.00,Wunderground v.1.15,2015-04-01 15:45:00,
2015-04-01 11:51:00,40.0,6.9,29.86,NNW,342,7.0,8.0,25,0.00,,,0.00,Wunderground v.1.15,2015-04-01 15:51:00,
2015-04-01 11:57:00,40.7,8.4,29.86,North,5,7.0,21.0,26,0.00,,,0.00,Wunderground v.1.15,2015-04-01 15:57:00,
2015-04-01 12:03:00,41.0,9.5,29.86,NNE,17,8.0,10.0,27,0.00,,,0.00,Wunderground v.1.15,2015-04-01 16:03:00,
2015-04-01 12:08:00,40.5,7.4,29.86,North,355,7.0,13.0,25,0.00,,,0.00,Wunderground v.1.15,2015-04-01 16:08:00,
2015-04-01 12:16:00,41.1,7.9,29.86,NNW,342,5.0,7.0,25,0.00,,,0.00,Wunderground v.1.15,2015-04-01 16:16:00,
2015-04-01 12:22:00,41.0,8.7,29.86,NNE,13,7.0,10.0,26,0.00,,,0.00,Wunderground v.1.15,2015-04-01 16:22:00,
2015-04-01 12:28:00,41.5,9.1,29.86,NNE,13,6.0,10.0,26,0.00,,,0.00,Wunderground v.1.15,2015-04-01 16:28:00,
2015-04-01 12:33:00,41.8,8.5,29.86,NNE,22,5.0,10.0,25,0.00,,,0.00,Wunderground v.1.15,2015-04-01 16:33:00,
2015-04-01 12:38:00,41.9,9.5,29.86,NNW,348,6.0,11.0,26,0.00,,,0.00,Wunderground v.1.15,2015-04-01 16:38:00,
2015-04-01 12:44:00,42.0,9.5,29.86,NNE,32,7.0,9.0,26,0.00,,,0.00,Wunderground v.1.15,2015-04-01 16:44:00,
2015-04-01 12:50:00,41.7,8.4,29.87,NNW,337,6.0,6.0,25,0.00,,,0.00,Wunderground v.1.15,2015-04-01 16:50:00,
2015-04-01 12:56:00,43.1,8.7,29.86,NNW,347,4.0,15.0,24,0.00,,,0.00,Wunderground v.1.15,2015-04-01 16:56:00,
2015-04-01 13:01:00,43.5,9.9,29.86,NNW,337,4.0,4.0,25,0.00,,,0.00,Wunderground v.1.15,2015-04-01 17:01:00,
2015-04-01 13:07:00,43.3,8.9,29.86,NNW,338,5.0,8.0,24,0.00,,,0.00,Wunderground v.1.15,2015-04-01 17:07:00,
2015-04-01 13:13:00,43.3,8.9,29.86,NE,50,6.0,7.0,24,0.00,,,0.00,Wunderground v.1.15,2015-04-01 17:13:00,
2015-04-01 13:19:00,43.1,8.7,29.86,NNW,345,7.0,10.0,24,0.00,,,0.00,Wunderground v.1.15,2015-04-01 17:19:00,
2015-04-01 13:24:00,43.2,7.8,29.86,North,11,8.0,11.0,23,0.00,,,0.00,Wunderground v.1.15,2015-04-01 17:24:00,
2015-04-01 13:30:00,43.1,8.7,29.86,NW,323,7.0,7.0,24,0.00,,,0.00,Wunderground v.1.15,2015-04-01 17:30:00,
2015-04-01 13:36:00,43.4,8.0,29.87,NNW,336,7.0,12.0,23,0.00,,,0.00,Wunderground v.1.15,2015-04-01 17:36:00,
2015-04-01 13:41:00,43.1,7.7,29.86,North,355,9.0,9.0,23,0.00,,,0.00,Wunderground v.1.15,2015-04-01 17:41:00,
2015-04-01 13:47:00,43.3,8.9,29.87,North,9,7.0,15.0,24,0.00,,,0.00,Wunderground v.1.15,2015-04-01 17:47:00,
2015-04-01 13:53:00,44.7,10.1,29.86,NNE,28,5.0,15.0,24,0.00,,,0.00,Wunderground v.1.15,2015-04-01 17:53:00,
2015-04-01 13:59:00,44.2,8.7,29.87,North,5,7.0,15.0,23,0.00,,,0.00,Wunderground v.1.15,2015-04-01 17:59:00,
2015-04-01 14:04:00,44.0,9.5,29.87,NNW,339,9.0,12.0,24,0.00,,,0.00,Wunderground v.1.15,2015-04-01 18:04:00,
2015-04-01 14:10:00,44.1,6.6,29.87,North,5,8.0,8.0,21,0.00,,,0.00,Wunderground v.1.15,2015-04-01 18:10:00,
2015-04-01 14:16:00,44.6,8.0,29.87,NNW,346,6.0,8.0,22,0.00,,,0.00,Wunderground v.1.15,2015-04-01 18:16:00,
2015-04-01 14:22:00,43.8,7.4,29.88,NNW,344,7.0,8.0,22,0.00,,,0.00,Wunderground v.1.15,2015-04-01 18:22:00,
2015-04-01 14:28:00,44.2,7.7,29.88,NW,323,8.0,12.0,22,0.00,,,0.00,Wunderground v.1.15,2015-04-01 18:28:00,
2015-04-01 14:33:00,44.1,7.6,29.88,North,11,7.0,12.0,22,0.00,,,0.00,Wunderground v.1.15,2015-04-01 18:33:00,
2015-04-01 14:39:00,44.1,5.5,29.88,NNW,337,8.0,12.0,20,0.00,,,0.00,Wunderground v.1.15,2015-04-01 18:39:00,
2015-04-01 14:45:00,44.6,7.0,29.88,North,360,8.0,14.0,21,0.00,,,0.00,Wunderground v.1.15,2015-04-01 18:45:00,
2015-04-01 14:50:00,43.9,6.4,29.88,NNW,345,9.0,16.0,21,0.00,,,0.00,Wunderground v.1.15,2015-04-01 18:50:00,
2015-04-01 14:56:00,43.9,6.4,29.88,NNE,23,8.0,16.0,21,0.00,,,0.00,Wunderground v.1.15,2015-04-01 18:56:00,
2015-04-01 15:02:00,44.0,7.5,29.88,North,5,7.0,11.0,22,0.00,,,0.00,Wunderground v.1.15,2015-04-01 19:02:00,
2015-04-01 15:08:00,43.6,7.2,29.88,NNE,15,8.0,14.0,22,0.00,,,0.00,Wunderground v.1.15,2015-04-01 19:08:00,
2015-04-01 15:14:00,43.3,4.8,29.88,NNW,341,9.0,13.0,20,0.00,,,0.00,Wunderground v.1.15,2015-04-01 19:14:00,
2015-04-01 15:22:00,44.0,5.4,29.88,NE,39,7.0,7.0,20,0.00,,,0.00,Wunderground v.1.15,2015-04-01 19:22:00,
2015-04-01 15:28:00,44.0,5.4,29.88,North,355,8.0,18.0,20,0.00,,,0.00,Wunderground v.1.15,2015-04-01 19:28:00,
2015-04-01 15:34:00,44.0,4.3,29.89,North,350,8.0,11.0,19,0.00,,,0.00,Wunderground v.1.15,2015-04-01 19:34:00,
2015-04-01 15:40:00,43.9,3.0,29.89,North,360,9.0,10.0,18,0.00,,,0.00,Wunderground v.1.15,2015-04-01 19:40:00,
2015-04-01 15:46:00,43.6,2.8,29.89,North,355,9.0,20.0,18,0.00,,,0.00,Wunderground v.1.15,2015-04-01 19:46:00,
2015-04-01 15:52:00,43.8,3.0,29.89,NE,41,6.0,20.0,18,0.00,,,0.00,Wunderground v.1.15,2015-04-01 19:52:00,
2015-04-01 15:58:00,43.8,4.1,29.89,NNE,12,8.0,20.0,19,0.00,,,0.00,Wunderground v.1.15,2015-04-01 19:58:00,
2015-04-01 16:03:00,44.1,4.4,29.89,North,355,7.0,8.0,19,0.00,,,0.00,Wunderground v.1.15,2015-04-01 20:03:00,
2015-04-01 16:09:00,44.9,5.1,29.89,NNE,22,6.0,9.0,19,0.00,,,0.00,Wunderground v.1.15,2015-04-01 20:09:00,
2015-04-01 16:15:00,45.0,6.3,29.89,NNE,28,5.0,13.0,20,0.00,,,0.00,Wunderground v.1.15,2015-04-01 20:15:00,
2015-04-01 16:21:00,44.9,5.1,29.89,NNE,22,5.0,6.0,19,0.00,,,0.00,Wunderground v.1.15,2015-04-01 20:21:00,
2015-04-01 16:26:00,45.0,6.3,29.89,NE,52,5.0,6.0,20,0.00,,,0.00,Wunderground v.1.15,2015-04-01 20:26:00,
2015-04-01 16:31:00,44.9,5.1,29.89,NE,37,5.0,6.0,19,0.00,,,0.00,Wunderground v.1.15,2015-04-01 20:31:00,
2015-04-01 16:37:00,45.0,6.3,29.89,NNW,339,5.0,8.0,20,0.00,,,0.00,Wunderground v.1.15,2015-04-01 20:37:00,
2015-04-01 16:43:00,45.4,4.3,29.89,NNW,329,5.0,10.0,18,0.00,,,0.00,Wunderground v.1.15,2015-04-01 20:43:00,
2015-04-01 16:48:00,45.3,4.2,29.89,NE,37,4.0,19.0,18,0.00,,,0.00,Wunderground v.1.15,2015-04-01 20:48:00,
2015-04-01 16:53:00,45.2,5.3,29.89,North,355,3.0,19.0,19,0.00,,,0.00,Wunderground v.1.15,2015-04-01 20:53:00,
2015-04-01 16:58:00,45.4,4.3,29.89,North,5,5.0,19.0,18,0.00,,,0.00,Wunderground v.1.15,2015-04-01 20:58:00,
2015-04-01 17:04:00,45.3,4.2,29.89,North,349,5.0,6.0,18,0.00,,,0.00,Wunderground v.1.15,2015-04-01 21:04:00,
2015-04-01 17:09:00,45.4,5.5,29.89,NNE,31,3.0,6.0,19,0.00,,,0.00,Wunderground v.1.15,2015-04-01 21:09:00,
2015-04-01 17:15:00,45.4,5.5,29.89,NNE,25,2.0,5.0,19,0.00,,,0.00,Wunderground v.1.15,2015-04-01 21:15:00,
2015-04-01 17:21:00,45.5,6.7,29.89,NE,36,2.0,3.0,20,0.00,,,0.00,Wunderground v.1.15,2015-04-01 21:21:00,
2015-04-01 17:27:00,45.8,5.8,29.89,NNW,340,2.0,5.0,19,0.00,,,0.00,Wunderground v.1.15,2015-04-01 21:27:00,
2015-04-01 17:32:00,45.8,4.6,29.90,West,278,3.0,6.0,18,0.00,,,0.00,Wunderground v.1.15,2015-04-01 21:32:00,
2015-04-01 17:38:00,45.8,4.6,29.90,NNW,344,3.0,6.0,18,0.00,,,0.00,Wunderground v.1.15,2015-04-01 21:38:00,
2015-04-01 17:44:00,45.8,5.8,29.91,North,360,3.0,4.0,19,0.00,,,0.00,Wunderground v.1.15,2015-04-01 21:44:00,
2015-04-01 17:50:00,45.7,6.8,29.91,NW,311,3.0,11.0,20,0.00,,,0.00,Wunderground v.1.15,2015-04-01 21:50:00,
2015-04-01 17:55:00,45.3,6.5,29.92,WNW,289,5.0,11.0,20,0.00,,,0.00,Wunderground v.1.15,2015-04-01 21:55:00,
2015-04-01 18:00:00,44.8,7.2,29.92,North,355,7.0,10.0,21,0.00,,,0.00,Wunderground v.1.15,2015-04-01 22:00:00,
2015-04-01 18:06:00,44.6,7.0,29.92,NNW,328,6.0,10.0,21,0.00,,,0.00,Wunderground v.1.15,2015-04-01 22:06:00,
2015-04-01 18:12:00,44.0,6.5,29.92,NW,325,6.0,6.0,21,0.00,,,0.00,Wunderground v.1.15,2015-04-01 22:12:00,
2015-04-01 18:18:00,43.8,7.4,29.93,WNW,284,6.0,6.0,22,0.00,,,0.00,Wunderground v.1.15,2015-04-01 22:18:00,
2015-04-01 18:23:00,43.6,7.2,29.93,WNW,299,6.0,7.0,22,0.00,,,0.00,Wunderground v.1.15,2015-04-01 22:23:00,
2015-04-01 18:29:00,43.6,7.2,29.94,NW,320,5.0,11.0,22,0.00,,,0.00,Wunderground v.1.15,2015-04-01 22:29:00,
2015-04-01 18:35:00,43.3,7.9,29.94,NNW,338,5.0,7.0,23,0.00,,,0.00,Wunderground v.1.15,2015-04-01 22:35:00,
2015-04-01 18:40:00,43.2,8.8,29.94,NNW,338,4.0,5.0,24,0.00,,,0.00,Wunderground v.1.15,2015-04-01 22:40:00,
2015-04-01 18:45:00,42.9,8.5,29.94,NW,311,5.0,13.0,24,0.00,,,0.00,Wunderground v.1.15,2015-04-01 22:45:00,
2015-04-01 18:51:00,42.5,9.1,29.94,NW,319,6.0,8.0,25,0.00,,,0.00,Wunderground v.1.15,2015-04-01 22:51:00,
2015-04-01 18:57:00,42.2,8.8,29.95,WNW,295,5.0,10.0,25,0.00,,,0.00,Wunderground v.1.15,2015-04-01 22:57:00,
2015-04-01 19:03:00,42.0,9.5,29.95,WNW,300,4.0,5.0,26,0.00,,,0.00,Wunderground v.1.15,2015-04-01 23:03:00,
2015-04-01 19:09:00,41.8,9.4,29.95,WNW,298,3.0,5.0,26,0.00,,,0.00,Wunderground v.1.15,2015-04-01 23:09:00,
2015-04-01 19:15:00,41.5,9.1,29.95,WNW,302,3.0,5.0,26,0.00,,,0.00,Wunderground v.1.15,2015-04-01 23:15:00,
2015-04-01 19:21:00,41.4,9.9,29.95,NW,326,3.0,3.0,27,0.00,,,0.00,Wunderground v.1.15,2015-04-01 23:21:00,
2015-04-01 19:27:00,41.2,9.7,29.96,NW,321,2.0,3.0,27,0.00,,,0.00,Wunderground v.1.15,2015-04-01 23:27:00,
2015-04-01 19:33:00,40.9,9.4,29.95,NW,321,1.0,2.0,27,0.00,,,0.00,Wunderground v.1.15,2015-04-01 23:33:00,
2015-04-01 19:39:00,40.8,9.3,29.95,NW,321,0.0,2.0,27,0.00,,,0.00,Wunderground v.1.15,2015-04-01 23:39:00,
2015-04-01 19:45:00,40.7,10.1,29.95,NW,321,0.0,2.0,28,0.00,,,0.00,Wunderground v.1.15,2015-04-01 23:45:00,
2015-04-01 19:50:00,40.6,10.0,29.96,NW,321,1.0,1.0,28,0.00,,,0.00,Wunderground v.1.15,2015-04-01 23:50:00,
2015-04-01 19:56:00,40.4,9.8,29.96,NW,321,0.0,14.0,28,0.00,,,0.00,Wunderground v.1.15,2015-04-01 23:56:00,
2015-04-01 20:02:00,40.1,9.6,29.97,NW,321,0.0,2.0,28,0.00,,,0.00,Wunderground v.1.15,2015-04-02 00:02:00,
2015-04-01 20:07:00,40.0,10.3,29.97,NW,321,1.0,3.0,29,0.00,,,0.00,Wunderground v.1.15,2015-04-02 00:07:00,
2015-04-01 20:12:00,39.9,10.2,29.97,NW,321,1.0,1.0,29,0.00,,,0.00,Wunderground v.1.15,2015-04-02 00:12:00,
2015-04-01 20:18:00,39.7,10.7,29.98,NW,321,0.0,2.0,30,0.00,,,0.00,Wunderground v.1.15,2015-04-02 00:18:00,
2015-04-01 20:25:00,39.2,10.3,29.98,NW,321,1.0,2.0,30,0.00,,,0.00,Wunderground v.1.15,2015-04-02 00:25:00,
2015-04-01 20:31:00,38.8,10.7,29.98,NW,319,1.0,3.0,31,0.00,,,0.00,Wunderground v.1.15,2015-04-02 00:31:00,
2015-04-01 20:37:00,38.3,10.3,29.99,NW,319,2.0,4.0,31,0.00,,,0.00,Wunderground v.1.15,2015-04-02 00:37:00,
2015-04-01 20:43:00,37.7,10.4,29.99,WNW,294,2.0,8.0,32,0.00,,,0.00,Wunderground v.1.15,2015-04-02 00:43:00,
2015-04-01 20:49:00,37.6,10.4,29.99,WNW,292,4.0,8.0,32,0.00,,,0.00,Wunderground v.1.15,2015-04-02 00:49:00,
2015-04-01 20:55:00,37.8,10.5,29.99,NW,309,5.0,11.0,32,0.00,,,0.00,Wunderground v.1.15,2015-04-02 00:55:00,
2015-04-01 21:00:00,37.8,11.2,29.99,WNW,292,4.0,8.0,33,0.00,,,0.00,Wunderground v.1.15,2015-04-02 01:00:00,
2015-04-01 21:06:00,37.8,9.8,29.99,WNW,286,4.0,8.0,31,0.00,,,0.00,Wunderground v.1.15,2015-04-02 01:06:00,
2015-04-01 21:11:00,37.9,9.9,30.00,WNW,301,5.0,5.0,31,0.00,,,0.00,Wunderground v.1.15,2015-04-02 01:11:00,
2015-04-01 21:17:00,37.9,9.9,30.00,West,279,5.0,8.0,31,0.00,,,0.00,Wunderground v.1.15,2015-04-02 01:17:00,
2015-04-01 21:23:00,37.7,10.4,30.00,WNW,288,4.0,5.0,32,0.00,,,0.00,Wunderground v.1.15,2015-04-02 01:23:00,
2015-04-01 21:29:00,37.5,10.3,30.00,NW,319,4.0,7.0,32,0.00,,,0.00,Wunderground v.1.15,2015-04-02 01:29:00,
2015-04-01 21:35:00,37.3,10.1,30.01,West,267,4.0,7.0,32,0.00,,,0.00,Wunderground v.1.15,2015-04-02 01:35:00,
2015-04-01 21:40:00,37.2,10.0,30.01,NW,309,5.0,5.0,32,0.00,,,0.00,Wunderground v.1.15,2015-04-02 01:40:00,
2015-04-01 21:46:00,37.2,10.7,30.01,WNW,300,4.0,12.0,33,0.00,,,0.00,Wunderground v.1.15,2015-04-02 01:46:00,
2015-04-01 21:52:00,37.0,10.5,30.01,WNW,298,2.0,12.0,33,0.00,,,0.00,Wunderground v.1.15,2015-04-02 01:52:00,
2015-04-01 21:58:00,36.9,10.4,30.01,NW,304,2.0,12.0,33,0.00,,,0.00,Wunderground v.1.15,2015-04-02 01:58:00,
2015-04-01 22:04:00,36.7,10.9,30.01,NNW,331,2.0,4.0,34,0.00,,,0.00,Wunderground v.1.15,2015-04-02 02:04:00,
2015-04-01 22:09:00,36.6,10.2,30.01,NW,323,1.0,4.0,33,0.00,,,0.00,Wunderground v.1.15,2015-04-02 02:09:00,
2015-04-01 22:15:00,36.4,10.7,30.01,NW,322,0.0,2.0,34,0.00,,,0.00,Wunderground v.1.15,2015-04-02 02:15:00,
2015-04-01 22:21:00,36.1,11.7,30.01,NW,324,0.0,1.0,36,0.00,,,0.00,Wunderground v.1.15,2015-04-02 02:21:00,